createdAt,value
2019-02-21T00:02:12.455Z,13.03
2019-02-21T00:04:40.417Z,12.60
2019-02-21T00:07:08.578Z,14.15
2019-02-21T00:09:36.725Z,12.07
2019-02-21T00:12:05.319Z,11.97
2019-02-21T00:14:34.260Z,10.93
2019-02-21T00:17:02.239Z,10.72
2019-02-21T00:19:30.297Z,10.50
2019-02-21T00:21:58.301Z,10.45
2019-02-21T00:24:26.540Z,11.70
2019-02-21T00:26:54.980Z,11.22
2019-02-21T00:29:23.805Z,11.93
2019-02-21T00:31:51.651Z,12.33
2019-02-21T00:34:19.939Z,10.32
2019-02-21T00:36:48.148Z,10.75
2019-02-21T00:39:16.140Z,9.90
2019-02-21T00:41:44.056Z,10.40
2019-02-21T00:44:12.340Z,9.20
2019-02-21T00:46:40.722Z,12.68
2019-02-21T00:49:08.630Z,11.12
2019-02-21T00:51:36.721Z,13.35
2019-02-21T00:54:04.794Z,14.07
2019-02-21T00:56:33.266Z,14.05
2019-02-21T00:59:01.470Z,18.50
2019-02-21T01:01:29.606Z,15.70
2019-02-21T01:03:58.106Z,13.55
2019-02-21T01:06:26.037Z,19.12
2019-02-21T01:08:54.047Z,19.02
2019-02-21T01:11:22.118Z,16.07
2019-02-21T01:13:49.998Z,15.93
2019-02-21T01:16:18.077Z,13.80
2019-02-21T01:18:46.426Z,13.60
2019-02-21T01:21:14.446Z,14.68
2019-02-21T01:23:42.394Z,13.53
2019-02-21T01:26:10.405Z,15.98
2019-02-21T01:28:38.393Z,12.70
2019-02-21T01:31:06.487Z,15.05
2019-02-21T01:33:34.461Z,15.15
2019-02-21T01:36:02.745Z,12.85
2019-02-21T01:38:30.730Z,16.82
2019-02-21T01:40:58.863Z,12.05
2019-02-21T01:43:26.868Z,14.33
2019-02-21T01:45:55.150Z,14.40
2019-02-21T01:48:23.054Z,14.43
2019-02-21T01:50:51.050Z,13.93
2019-02-21T01:53:18.946Z,12.95
2019-02-21T01:55:46.883Z,13.20
2019-02-21T01:58:15.460Z,12.37
2019-02-21T02:00:43.463Z,14.93
2019-02-21T02:03:11.618Z,12.50
2019-02-21T02:05:39.656Z,14.05
2019-02-21T02:08:07.618Z,16.30
2019-02-21T02:10:35.638Z,17.92
2019-02-21T02:13:03.741Z,15.05
2019-02-21T02:15:32.662Z,14.13
2019-02-21T02:18:00.564Z,16.12
2019-02-21T02:20:28.975Z,14.07
2019-02-21T02:22:57.107Z,13.95
2019-02-21T02:25:25.412Z,14.43
2019-02-21T02:27:53.510Z,19.10
2019-02-21T02:30:21.416Z,16.00
2019-02-21T02:32:49.439Z,12.93
2019-02-21T02:35:17.453Z,11.65
2019-02-21T02:37:45.628Z,14.80
2019-02-21T02:40:13.727Z,13.85
2019-02-21T02:42:41.977Z,13.13
2019-02-21T02:45:09.920Z,13.93
2019-02-21T02:47:37.901Z,14.15
2019-02-21T02:50:06.519Z,13.38
2019-02-21T02:52:34.462Z,16.17
2019-02-21T02:55:02.387Z,14.75
2019-02-21T02:57:30.694Z,15.23
2019-02-21T02:59:58.776Z,14.90
2019-02-21T03:02:26.632Z,14.83
2019-02-21T03:04:54.594Z,14.25
2019-02-21T03:07:22.900Z,17.07
2019-02-21T03:09:50.833Z,18.10
2019-02-21T03:12:18.858Z,17.82
2019-02-21T03:14:47.474Z,16.32
2019-02-21T03:17:15.412Z,18.00
2019-02-21T03:19:43.767Z,22.02
2019-02-21T03:22:11.709Z,14.65
2019-02-21T03:24:39.696Z,15.48
2019-02-21T03:27:08.046Z,18.75
2019-02-21T03:29:37.249Z,16.93
2019-02-21T03:32:06.582Z,15.40
2019-02-21T03:34:35.392Z,15.30
2019-02-21T03:37:03.626Z,16.82
2019-02-21T03:39:31.478Z,20.25
2019-02-21T03:41:59.992Z,21.25
2019-02-21T03:44:27.983Z,18.70
2019-02-21T03:46:56.136Z,16.60
2019-02-21T03:49:24.172Z,21.68
2019-02-21T03:51:52.267Z,19.05
2019-02-21T03:54:20.408Z,18.30
2019-02-21T03:56:48.432Z,15.90
2019-02-21T03:59:16.671Z,19.37
2019-02-21T04:01:44.997Z,14.25
2019-02-21T04:04:13.075Z,15.03
2019-02-21T04:06:41.066Z,16.00
2019-02-21T04:09:09.234Z,15.85
2019-02-21T04:11:37.132Z,19.48
2019-02-21T04:14:05.021Z,18.05
2019-02-21T04:16:32.941Z,17.60
2019-02-21T04:19:00.880Z,18.15
2019-02-21T04:21:29.154Z,16.93
2019-02-21T04:23:56.988Z,18.05
2019-02-21T04:26:24.961Z,22.65
2019-02-21T04:28:52.898Z,21.82
2019-02-21T04:31:21.127Z,18.32
2019-02-21T04:33:49.186Z,18.42
2019-02-21T04:36:17.723Z,15.65
2019-02-21T04:38:45.770Z,20.68
2019-02-21T04:41:14.452Z,22.52
2019-02-21T04:43:42.390Z,18.92
2019-02-21T04:46:10.274Z,15.53
2019-02-21T04:48:38.159Z,17.92
2019-02-21T04:51:06.129Z,18.80
2019-02-21T04:53:34.154Z,17.30
2019-02-21T04:56:02.054Z,22.77
2019-02-21T04:58:30.024Z,18.95
2019-02-21T05:00:58.192Z,17.10
2019-02-21T05:03:26.107Z,14.50
2019-02-21T05:05:54.207Z,21.90
2019-02-21T05:08:22.675Z,17.90
2019-02-21T05:10:50.921Z,20.25
2019-02-21T05:13:19.296Z,16.35
2019-02-21T05:15:47.408Z,17.70
2019-02-21T05:18:15.642Z,17.20
2019-02-21T05:20:43.600Z,15.15
2019-02-21T05:23:11.499Z,17.23
2019-02-21T05:25:39.634Z,14.33
2019-02-21T05:28:23.058Z,17.50
2019-02-21T05:30:53.482Z,19.17
2019-02-21T05:33:42.658Z,15.72
2019-02-21T05:36:29.228Z,13.98
2019-02-21T05:39:13.628Z,17.30
2019-02-21T05:42:07.735Z,15.55
2019-02-21T05:44:51.562Z,16.27
2019-02-21T05:47:33.545Z,14.05
2019-02-21T05:50:45.289Z,15.58
2019-02-21T05:53:25.915Z,15.03
2019-02-21T05:56:13.550Z,17.27
2019-02-21T05:59:07.069Z,17.62
2019-02-21T06:02:06.883Z,17.10
2019-02-21T06:05:08.742Z,15.80
2019-02-21T06:07:54.749Z,20.68
2019-02-21T06:10:45.555Z,24.27
2019-02-21T06:13:26.827Z,17.20
2019-02-21T06:16:06.461Z,32.17
2019-02-21T06:18:53.472Z,30.60
2019-02-21T06:21:31.678Z,39.50
2019-02-21T06:24:20.440Z,40.28
2019-02-21T06:26:56.374Z,34.03
2019-02-21T06:29:28.246Z,36.85
2019-02-21T06:31:56.444Z,37.98
2019-02-21T06:34:24.610Z,36.95
2019-02-21T06:36:53.041Z,37.58
2019-02-21T06:39:21.100Z,38.00
2019-02-21T06:41:58.971Z,36.45
2019-02-21T06:44:19.786Z,38.48
2019-02-21T06:46:47.786Z,44.45
2019-02-21T06:49:15.791Z,38.13
2019-02-21T06:51:45.109Z,41.85
2019-02-21T06:54:13.701Z,34.60
2019-02-21T06:56:42.041Z,41.05
2019-02-21T06:59:10.077Z,39.90
2019-02-21T07:01:38.140Z,34.95
2019-02-21T07:04:06.441Z,42.78
2019-02-21T07:06:34.961Z,38.38
2019-02-21T07:09:04.609Z,38.92
2019-02-21T07:11:32.652Z,40.52
2019-02-21T07:14:00.924Z,33.15
2019-02-21T07:16:29.248Z,34.60
2019-02-21T07:18:57.319Z,34.15
2019-02-21T07:21:25.758Z,37.58
2019-02-21T07:23:53.977Z,35.88
2019-02-21T07:26:22.062Z,37.38
2019-02-21T07:28:50.098Z,38.80
2019-02-21T07:31:28.260Z,37.93
2019-02-21T07:33:48.456Z,45.10
2019-02-21T07:36:16.778Z,39.15
2019-02-21T07:38:45.222Z,38.60
2019-02-21T07:41:13.416Z,38.65
2019-02-21T07:43:41.806Z,41.73
2019-02-21T07:46:09.977Z,36.28
2019-02-21T07:48:38.045Z,36.30
2019-02-21T07:51:06.345Z,36.95
2019-02-21T07:53:34.370Z,40.75
2019-02-21T07:56:02.748Z,40.23
2019-02-21T07:58:31.055Z,35.40
2019-02-21T08:00:59.079Z,33.67
2019-02-21T08:03:32.000Z,37.30
2019-02-21T08:05:56.785Z,36.30
2019-02-21T08:08:25.269Z,39.63
2019-02-21T08:10:53.317Z,37.98
2019-02-21T08:13:21.392Z,37.80
2019-02-21T08:15:49.918Z,37.95
2019-02-21T08:18:18.985Z,34.33
2019-02-21T08:20:48.296Z,34.35
2019-02-21T08:23:16.195Z,39.35
2019-02-21T08:25:44.139Z,40.30
2019-02-21T08:28:12.276Z,41.18
2019-02-21T08:30:40.387Z,30.92
2019-02-21T08:33:22.639Z,31.68
2019-02-21T08:35:50.605Z,34.73
2019-02-21T08:38:18.447Z,30.97
2019-02-21T08:40:46.959Z,27.30
2019-02-21T08:43:15.211Z,34.25
2019-02-21T08:45:43.479Z,31.00
2019-02-21T08:48:14.549Z,34.98
2019-02-21T08:50:43.001Z,48.95
2019-02-21T08:53:13.014Z,41.95
2019-02-21T08:55:41.302Z,44.60
2019-02-21T08:58:09.642Z,40.98
2019-02-21T09:00:37.880Z,34.38
2019-02-21T09:03:05.798Z,36.63
2019-02-21T09:05:33.939Z,47.95
2019-02-21T09:08:02.531Z,36.58
2019-02-21T09:10:30.470Z,37.90
2019-02-21T09:12:58.647Z,34.75
2019-02-21T09:15:26.785Z,37.95
2019-02-21T09:17:54.816Z,38.50
2019-02-21T09:20:22.967Z,40.30
2019-02-21T09:22:51.173Z,39.35
2019-02-21T09:25:19.140Z,39.98
2019-02-21T09:27:47.112Z,34.98
2019-02-21T09:30:16.916Z,37.80
2019-02-21T09:32:44.886Z,38.73
2019-02-21T09:35:13.590Z,36.33
2019-02-21T09:37:41.523Z,38.00
2019-02-21T09:40:11.384Z,37.73
2019-02-21T09:42:39.487Z,39.95
2019-02-21T09:45:11.736Z,34.43
2019-02-21T09:47:39.694Z,32.42
2019-02-21T09:50:10.234Z,38.45
2019-02-21T09:52:38.177Z,29.05
2019-02-21T09:55:09.068Z,34.45
2019-02-21T09:57:37.059Z,35.35
2019-02-21T10:00:17.066Z,30.30
2019-02-21T10:02:45.452Z,33.30
2019-02-21T10:05:13.752Z,34.65
2019-02-21T10:07:42.350Z,30.25
2019-02-21T10:10:17.181Z,31.93
2019-02-21T10:12:45.220Z,34.85
2019-02-21T10:15:13.748Z,37.73
2019-02-21T10:17:41.834Z,79.97
2019-02-21T10:20:13.052Z,33.23
2019-02-21T10:22:41.522Z,31.60
2019-02-21T10:25:16.846Z,33.78
2019-02-21T10:27:45.073Z,32.93
2019-02-21T10:30:14.679Z,32.30
2019-02-21T10:32:42.810Z,29.45
2019-02-21T10:35:11.102Z,32.83
2019-02-21T10:37:39.170Z,30.92
2019-02-21T10:40:08.979Z,32.38
2019-02-21T10:42:36.954Z,31.45
2019-02-21T10:45:08.194Z,29.67
2019-02-21T10:47:36.086Z,30.02
2019-02-21T10:50:05.707Z,30.75
2019-02-21T10:52:33.700Z,27.70
2019-02-21T10:55:01.704Z,35.13
2019-02-21T10:57:29.672Z,33.02
2019-02-21T10:59:58.026Z,36.83
2019-02-21T11:02:27.314Z,29.55
2019-02-21T11:04:55.639Z,34.73
2019-02-21T11:07:23.648Z,32.73
2019-02-21T11:09:51.824Z,37.63
2019-02-21T11:12:19.837Z,32.60
2019-02-21T11:14:48.291Z,34.27
2019-02-21T11:17:16.422Z,31.68
2019-02-21T11:19:44.915Z,31.00
2019-02-21T11:22:12.910Z,34.13
2019-02-21T11:24:41.081Z,36.48
2019-02-21T11:27:08.985Z,30.60
2019-02-21T11:29:37.250Z,35.03
2019-02-21T11:32:05.640Z,31.75
2019-02-21T11:34:34.946Z,32.60
2019-02-21T11:37:03.353Z,33.10
2019-02-21T11:39:31.343Z,32.00
2019-02-21T11:41:59.451Z,33.25
2019-02-21T11:44:27.678Z,30.77
2019-02-21T11:46:55.833Z,32.15
2019-02-21T11:49:23.886Z,32.17
2019-02-21T11:51:52.076Z,31.20
2019-02-21T11:54:27.077Z,29.60
2019-02-21T11:56:50.390Z,33.83
2019-02-21T11:59:18.400Z,30.45
2019-02-21T12:01:46.785Z,41.02
2019-02-21T12:04:15.154Z,31.10
2019-02-21T12:06:43.280Z,34.38
2019-02-21T12:09:12.539Z,33.30
2019-02-21T12:11:40.985Z,33.67
2019-02-21T12:14:09.041Z,31.35
2019-02-21T12:16:37.103Z,37.60
2019-02-21T12:19:05.112Z,30.88
2019-02-21T12:21:33.145Z,32.70
2019-02-21T12:24:01.272Z,37.05
2019-02-21T12:26:29.525Z,31.57
2019-02-21T12:28:57.938Z,35.05
2019-02-21T12:31:26.389Z,31.23
2019-02-21T12:33:54.530Z,36.33
2019-02-21T12:36:22.733Z,28.52
2019-02-21T12:38:50.788Z,31.10
2019-02-21T12:41:18.851Z,36.25
2019-02-21T12:43:47.064Z,36.88
2019-02-21T12:46:15.124Z,33.63
2019-02-21T12:48:43.660Z,32.23
2019-02-21T12:51:11.630Z,35.73
2019-02-21T12:53:39.657Z,31.45
2019-02-21T12:56:13.331Z,31.10
2019-02-21T12:58:41.773Z,28.47
2019-02-21T13:01:09.773Z,31.42
2019-02-21T13:03:38.414Z,29.70
2019-02-21T13:06:06.492Z,28.27
2019-02-21T13:08:34.666Z,31.12
2019-02-21T13:11:03.039Z,40.88
2019-02-21T13:13:31.286Z,25.65
2019-02-21T13:15:59.419Z,28.07
2019-02-21T13:18:27.807Z,29.90
2019-02-21T13:20:56.204Z,24.70
2019-02-21T13:23:24.645Z,26.05
2019-02-21T13:25:52.594Z,24.70
2019-02-21T13:28:20.656Z,24.27
2019-02-21T13:30:48.636Z,28.55
2019-02-21T13:33:16.840Z,31.52
2019-02-21T13:35:52.593Z,31.77
2019-02-21T13:38:15.299Z,26.80
2019-02-21T13:40:43.862Z,24.35
2019-02-21T13:43:12.072Z,23.98
2019-02-21T13:45:40.046Z,31.50
2019-02-21T13:48:08.025Z,28.75
2019-02-21T13:50:35.898Z,24.65
2019-02-21T13:53:04.451Z,24.23
2019-02-21T13:55:32.559Z,22.58
2019-02-21T13:58:01.207Z,18.90
2019-02-21T14:00:29.620Z,20.62
2019-02-21T14:02:58.264Z,21.48
2019-02-21T14:05:26.229Z,24.45
2019-02-21T14:07:54.804Z,22.80
2019-02-21T14:10:22.856Z,19.73
2019-02-21T14:12:51.004Z,20.68
2019-02-21T14:15:23.389Z,25.08
2019-02-21T14:17:51.380Z,18.48
2019-02-21T14:20:19.664Z,17.90
2019-02-21T14:22:47.953Z,16.37
2019-02-21T14:25:16.545Z,15.70
2019-02-21T14:27:44.678Z,17.80
2019-02-21T14:30:15.408Z,18.05
2019-02-21T14:32:43.930Z,18.48
2019-02-21T14:35:11.926Z,18.40
2019-02-21T14:37:40.406Z,17.02
2019-02-21T14:40:10.347Z,24.77
2019-02-21T14:42:38.274Z,15.50
2019-02-21T14:45:12.186Z,18.92
2019-02-21T14:47:39.753Z,21.73
2019-02-21T14:50:08.659Z,19.65
2019-02-21T14:52:37.066Z,21.68
2019-02-21T14:55:07.253Z,21.50
2019-02-21T14:57:40.819Z,20.32
2019-02-21T15:00:19.025Z,21.48
2019-02-21T15:02:47.216Z,18.15
2019-02-21T15:05:15.233Z,18.92
2019-02-21T15:07:43.919Z,22.58
2019-02-21T15:10:11.924Z,17.67
2019-02-21T15:12:40.021Z,22.22
2019-02-21T15:15:09.865Z,19.02
2019-02-21T15:17:38.387Z,18.15
2019-02-21T15:20:09.101Z,17.20
2019-02-21T15:22:37.171Z,17.52
2019-02-21T15:25:06.201Z,20.50
2019-02-21T15:27:35.084Z,18.37
2019-02-21T15:30:03.476Z,22.13
2019-02-21T15:32:31.527Z,19.40
2019-02-21T15:34:59.458Z,18.65
2019-02-21T15:37:27.670Z,22.13
2019-02-21T15:39:55.763Z,16.80
2019-02-21T15:42:23.891Z,16.73
2019-02-21T15:44:52.285Z,19.73
2019-02-21T15:47:20.920Z,18.30
2019-02-21T15:49:48.779Z,19.60
2019-02-21T15:52:36.602Z,17.30
2019-02-21T15:55:12.397Z,16.45
2019-02-21T15:57:36.435Z,17.42
2019-02-21T16:00:07.483Z,24.02
2019-02-21T16:02:35.575Z,21.95
2019-02-21T16:05:04.275Z,23.20
2019-02-21T16:07:32.388Z,23.57
2019-02-21T16:10:00.386Z,20.27
2019-02-21T16:12:28.910Z,18.45
2019-02-21T16:14:57.315Z,27.32
2019-02-21T16:17:25.314Z,19.48
2019-02-21T16:19:53.305Z,21.35
2019-02-21T16:22:21.765Z,20.15
2019-02-21T16:24:49.927Z,20.82
2019-02-21T16:27:17.975Z,36.33
2019-02-21T16:29:46.327Z,32.73
2019-02-21T16:32:14.351Z,22.93
2019-02-21T16:34:42.737Z,16.87
2019-02-21T16:37:10.713Z,16.20
2019-02-21T16:39:38.582Z,16.85
2019-02-21T16:42:06.490Z,19.42
2019-02-21T16:44:34.621Z,14.93
2019-02-21T16:47:02.746Z,19.50
2019-02-21T16:49:30.644Z,20.32
2019-02-21T16:51:58.769Z,17.25
2019-02-21T16:54:26.893Z,23.92
2019-02-21T16:56:55.003Z,18.80
2019-02-21T16:59:23.572Z,19.60
2019-02-21T17:01:51.645Z,15.68
2019-02-21T17:04:19.564Z,18.55
2019-02-21T17:06:47.771Z,18.73
2019-02-21T17:09:16.204Z,15.35
2019-02-21T17:11:44.214Z,20.77
2019-02-21T17:14:12.473Z,14.80
2019-02-21T17:16:40.871Z,15.90
2019-02-21T17:19:08.999Z,15.53
2019-02-21T17:21:37.205Z,15.93
2019-02-21T17:24:05.669Z,15.48
2019-02-21T17:26:33.693Z,16.73
2019-02-21T17:29:02.060Z,21.45
2019-02-21T17:31:30.134Z,17.95
2019-02-21T17:33:58.301Z,14.68
2019-02-21T17:36:26.182Z,19.73
2019-02-21T17:38:54.974Z,19.40
2019-02-21T17:41:22.920Z,20.15
2019-02-21T17:43:51.453Z,15.80
2019-02-21T17:46:19.596Z,16.75
2019-02-21T17:48:47.961Z,17.75
2019-02-21T17:51:16.023Z,17.05
2019-02-21T17:53:44.642Z,12.88
2019-02-21T17:56:12.669Z,17.65
2019-02-21T17:58:41.154Z,21.27
2019-02-21T18:01:09.297Z,42.20
2019-02-21T18:03:38.124Z,38.45
2019-02-21T18:06:06.405Z,44.60
2019-02-21T18:08:34.616Z,50.08
2019-02-21T18:11:02.732Z,48.52
2019-02-21T18:13:32.244Z,46.13
2019-02-21T18:16:00.426Z,29.95
2019-02-21T18:18:28.413Z,36.23
2019-02-21T18:20:56.366Z,20.23
2019-02-21T18:23:24.524Z,28.05
2019-02-21T18:26:00.364Z,20.65
2019-02-21T18:28:28.683Z,25.05
2019-02-21T18:30:57.201Z,21.30
2019-02-21T18:33:25.158Z,24.20
2019-02-21T18:35:53.196Z,27.25
2019-02-21T18:38:21.610Z,26.77
2019-02-21T18:40:49.994Z,27.05
2019-02-21T18:43:17.966Z,27.05
2019-02-21T18:45:45.865Z,26.48
2019-02-21T18:48:14.269Z,25.62
2019-02-21T18:50:42.861Z,27.30
2019-02-21T18:53:10.850Z,23.80
2019-02-21T18:55:39.065Z,25.05
2019-02-21T18:58:07.291Z,20.60
2019-02-21T19:00:35.530Z,30.35
2019-02-21T19:03:03.599Z,24.90
2019-02-21T19:05:35.754Z,20.50
2019-02-21T19:08:05.459Z,21.40
2019-02-21T19:10:32.076Z,21.60
2019-02-21T19:13:00.372Z,23.10
2019-02-21T19:15:28.802Z,23.07
2019-02-21T19:17:56.827Z,25.97
2019-02-21T19:20:25.067Z,27.62
2019-02-21T19:22:53.185Z,27.07
2019-02-21T19:25:21.190Z,25.17
2019-02-21T19:27:49.763Z,22.32
2019-02-21T19:30:25.882Z,24.92
2019-02-21T19:32:54.258Z,24.57
2019-02-21T19:35:22.996Z,23.02
2019-02-21T19:37:50.891Z,32.17
2019-02-21T19:40:19.202Z,28.83
2019-02-21T19:42:47.618Z,44.03
2019-02-21T19:45:15.819Z,32.65
2019-02-21T19:47:44.102Z,28.12
2019-02-21T19:50:12.599Z,28.32
2019-02-21T19:52:40.673Z,25.00
2019-02-21T19:55:09.910Z,26.23
2019-02-21T19:57:38.306Z,27.58
2019-02-21T20:00:11.620Z,26.17
2019-02-21T20:02:39.970Z,24.50
2019-02-21T20:05:08.259Z,21.68
2019-02-21T20:07:36.292Z,24.75
2019-02-21T20:10:05.564Z,20.88
2019-02-21T20:12:33.640Z,24.70
2019-02-21T20:15:02.003Z,25.25
2019-02-21T20:17:30.325Z,24.52
2019-02-21T20:19:58.570Z,23.52
2019-02-21T20:22:26.527Z,23.98
2019-02-21T20:24:55.558Z,25.80
2019-02-21T20:27:23.756Z,23.98
2019-02-21T20:29:51.729Z,23.20
2019-02-21T20:32:19.835Z,21.73
2019-02-21T20:34:47.932Z,27.10
2019-02-21T20:37:17.114Z,26.65
2019-02-21T20:39:45.402Z,26.10
2019-02-21T20:42:13.425Z,22.15
2019-02-21T20:44:41.639Z,23.35
2019-02-21T20:47:10.180Z,26.00
2019-02-21T20:49:39.152Z,28.07
2019-02-21T20:52:07.340Z,28.32
2019-02-21T20:54:35.436Z,25.62
2019-02-21T20:57:03.878Z,25.43
2019-02-21T20:59:31.971Z,25.17
2019-02-21T21:02:00.134Z,22.80
2019-02-21T21:04:28.486Z,27.05
2019-02-21T21:06:56.639Z,28.27
2019-02-21T21:09:25.227Z,27.00
2019-02-21T21:11:53.290Z,26.20
2019-02-21T21:14:21.400Z,26.55
2019-02-21T21:16:54.269Z,28.42
2019-02-21T21:19:22.562Z,31.87
2019-02-21T21:21:51.020Z,23.83
2019-02-21T21:24:19.102Z,29.07
2019-02-21T21:26:47.489Z,25.00
2019-02-21T21:29:15.810Z,25.43
2019-02-21T21:31:43.851Z,23.02
2019-02-21T21:34:12.417Z,24.12
2019-02-21T21:36:40.362Z,25.55
2019-02-21T21:39:09.454Z,26.70
2019-02-21T21:41:37.687Z,28.80
2019-02-21T21:44:05.876Z,23.92
2019-02-21T21:46:34.360Z,29.45
2019-02-21T21:49:02.696Z,25.17
2019-02-21T21:51:31.064Z,23.75
2019-02-21T21:53:59.853Z,32.70
2019-02-21T21:56:27.996Z,29.65
2019-02-21T21:58:56.223Z,23.55
2019-02-21T22:01:24.463Z,25.43
2019-02-21T22:03:52.477Z,25.32
2019-02-21T22:06:20.465Z,25.45
2019-02-21T22:08:48.959Z,23.42
2019-02-21T22:11:16.947Z,32.25
2019-02-21T22:13:45.527Z,22.75
2019-02-21T22:16:13.594Z,28.17
2019-02-21T22:18:42.053Z,22.82
2019-02-21T22:21:10.151Z,26.00
2019-02-21T22:23:38.484Z,26.10
2019-02-21T22:26:06.469Z,23.62
2019-02-21T22:28:34.983Z,24.85
2019-02-21T22:31:02.995Z,29.20
2019-02-21T22:33:30.994Z,23.38
2019-02-21T22:35:59.328Z,26.37
2019-02-21T22:38:27.359Z,21.60
2019-02-21T22:40:55.746Z,27.40
2019-02-21T22:43:24.014Z,23.10
2019-02-21T22:45:52.456Z,22.93
2019-02-21T22:48:20.780Z,24.25
2019-02-21T22:50:48.903Z,22.77
2019-02-21T22:53:16.856Z,21.65
2019-02-21T22:55:46.042Z,23.75
2019-02-21T22:58:14.004Z,24.57
2019-02-21T23:01:22.728Z,23.27
2019-02-21T23:04:29.686Z,22.82
2019-02-21T23:07:59.955Z,22.65
2019-02-21T23:10:28.086Z,21.80
2019-02-21T23:12:56.050Z,25.68
2019-02-21T23:15:24.015Z,26.73
2019-02-21T23:17:52.303Z,22.67
2019-02-21T23:20:20.223Z,21.35
2019-02-21T23:22:48.189Z,24.18
2019-02-21T23:25:16.364Z,22.87
2019-02-21T23:27:44.414Z,25.27
2019-02-21T23:30:13.944Z,22.45
2019-02-21T23:32:42.545Z,21.87
2019-02-21T23:35:16.136Z,26.50
2019-02-21T23:37:44.093Z,22.52
2019-02-21T23:40:12.186Z,22.05
2019-02-21T23:42:41.457Z,25.85
2019-02-21T23:45:09.582Z,21.33
2019-02-21T23:47:37.494Z,22.42
2019-02-21T23:50:05.465Z,22.32
2019-02-21T23:52:34.066Z,22.10
2019-02-21T23:55:02.074Z,21.68
2019-02-21T23:57:30.272Z,26.23
2019-02-21T23:59:58.337Z,22.48
